createdAt,value
2022-12-06T00:13:18.767Z,59.152
2022-12-06T00:28:21.186Z,58.963
2022-12-06T00:43:23.429Z,57.754
2022-12-06T00:58:25.747Z,60.64
2022-12-06T01:13:28.255Z,59.933
2022-12-06T01:28:30.550Z,59.914
2022-12-06T01:43:32.907Z,60.97
2022-12-06T01:58:35.216Z,60.453
2022-12-06T02:13:37.507Z,61.43
2022-12-06T02:28:39.776Z,60.744
2022-12-06T02:43:42.089Z,60.541
2022-12-06T02:58:44.383Z,61.051
2022-12-06T03:13:46.656Z,61.623
2022-12-06T03:28:48.901Z,61.051
2022-12-06T03:43:51.340Z,62.804
2022-12-06T03:58:53.687Z,61.805
2022-12-06T04:13:56.017Z,61.933
2022-12-06T04:28:58.294Z,61.774
2022-12-06T04:44:00.524Z,61.39
2022-12-06T04:59:02.854Z,61.662
2022-12-06T05:14:05.200Z,61.883
2022-12-06T05:29:07.461Z,62.589
2022-12-06T05:44:09.969Z,63.014
2022-12-06T05:59:12.338Z,64.374
2022-12-06T06:14:14.607Z,65.548
2022-12-06T06:29:17.109Z,64.687
2022-12-06T06:44:19.438Z,63.716
2022-12-06T06:59:21.805Z,64.226
2022-12-06T07:14:24.097Z,64.765
2022-12-06T07:29:26.402Z,64.049
2022-12-06T07:44:28.900Z,64.801
2022-12-06T07:59:31.207Z,65.401
2022-12-06T08:14:33.575Z,64.849
2022-12-06T08:29:35.858Z,64.527
2022-12-06T08:44:38.143Z,64.909
2022-12-06T08:59:40.443Z,63.459
2022-12-06T09:14:42.884Z,64.235
2022-12-06T09:29:45.240Z,64.408
2022-12-06T09:44:47.510Z,65.408
2022-12-06T09:59:49.834Z,65.721
2022-12-06T10:14:52.134Z,66.948
2022-12-06T10:29:54.494Z,66.45
2022-12-06T10:44:56.820Z,67.149
2022-12-06T11:00:03.078Z,66.494
2022-12-06T11:15:06.122Z,66.301
2022-12-06T11:30:08.456Z,67.157
2022-12-06T11:45:10.756Z,67.388
2022-12-06T12:00:13.007Z,67.232
2022-12-06T12:15:15.357Z,67.097
2022-12-06T12:30:17.645Z,67.083
2022-12-06T12:45:19.964Z,67.273
2022-12-06T13:00:22.309Z,66.5
2022-12-06T13:15:24.647Z,66.248
2022-12-06T13:30:27.042Z,66.054
2022-12-06T13:45:29.418Z,66.141
2022-12-06T14:00:31.717Z,67.032
2022-12-06T14:15:33.967Z,66.479
2022-12-06T14:30:36.310Z,65.357
2022-12-06T14:45:38.689Z,66.287
2022-12-06T15:00:40.967Z,65.278
2022-12-06T15:15:43.523Z,64.864
2022-12-06T15:30:45.931Z,65.755
2022-12-06T15:45:48.255Z,65.029
2022-12-06T16:00:50.539Z,66.387
2022-12-06T16:15:52.911Z,65.695
2022-12-06T16:30:55.310Z,64.124
2022-12-06T16:45:57.596Z,65.119
2022-12-06T17:00:59.984Z,64.919
2022-12-06T17:16:02.485Z,65.737
2022-12-06T17:31:04.839Z,65.691
2022-12-06T17:46:07.279Z,65.835
2022-12-06T18:01:09.744Z,65.163
2022-12-06T18:16:12.068Z,65.168
2022-12-06T18:31:14.389Z,64.641
2022-12-06T18:46:16.848Z,64.919
2022-12-06T19:01:19.514Z,64.275
2022-12-06T19:16:21.928Z,62.701
2022-12-06T19:31:24.216Z,61.927
2022-12-06T19:46:26.696Z,62.369
2022-12-06T20:01:29.071Z,62.907
2022-12-06T20:16:31.366Z,62.225
2022-12-06T20:31:33.818Z,62.929
2022-12-06T20:46:36.239Z,61.727
2022-12-06T21:01:38.685Z,63.122
2022-12-06T21:16:41.068Z,62.688
2022-12-06T21:31:43.541Z,63.075
2022-12-06T21:46:45.981Z,62.013
2022-12-06T22:01:48.399Z,61.883
2022-12-06T22:16:50.762Z,62.389
2022-12-06T22:31:53.107Z,62.179
2022-12-06T22:46:55.576Z,62.778
2022-12-06T23:01:57.992Z,63.153
2022-12-06T23:17:00.393Z,63.005
2022-12-06T23:32:02.793Z,63.281
2022-12-06T23:47:05.079Z,62.665
